CYQH

Watson Lake Airport

Watson Lake, , Canada
METAR CYQH 201300Z 24004KT 190V270 15SM OVC160 06/M02 A2970 RMK AC8 SLP082
Observed Flight Rules
Oct-20 @ 13:00 UTC (25 minutes ago) Visual Flight Rules
Wind Visibility Clouds
240° at 4 knots 15 miles
  • Overcast at 16,000' AGL
Temperatures Readings
Current 6°C / 43°F
Dewpoint -2°C / 28°F
Humidity 57%
Altimeter 29.7" Hg
Pressure 1008.2 hPa
Elevation 690
METAR CYQH 201300Z 24004KT 190V270 15SM OVC160 06/M02 A2970 RMK AC8 SLP082
Observed Flight Rules
Oct-20 @ 13:00 UTC
(25 minutes ago)
VFR
Wind Visibility
240° at 4 knots 15 miles
Clouds
  • Overcast at 16,000' AGL
Temperature Dewpoint
6°C / 43°F -2°C / 28°F
Humidity Altimeter Pressure
57% 29.7" Hg 1008.2 hPa